Kuwait, Kuwait

3:43 PM AST on October 24, 2014 (GMT +0300)
Kuwait International | Change Station
CLOSE
Current Station
Airport
Location: Kuwait,
Elevation: 180 ft
Nearby Weather Stations

Elev 180 ft 29.22 °N, 47.98 °E | Updated 43 minutes ago

Clear
Clear
88 °F
Feels Like 88 °F
N
4
Wind Variable Wind from South

Today
High -- | Low -- °F
--% Chance of Precip.
Yesterday
High -- | Low -- °F
Precip. -- in
5:54 AM 5:09 PM
New Moon, 0% visible
Pressure 29.92 in
Visibility -9999.0 miles
Clouds
Dew Point 45 °F
Humidity 22%
Rainfall 0.00 in
Snow Depth Not available.
UV Not available.
Pollen Not available.
Air Quality Not available.
Flu Activity Not available.
METAR OKBK 241200Z 18003KT CAVOK 31/07 Q1013 NOSIG

More Conditions Fewer Conditions

Pressure 29.92 in
Visibility -9999.0 miles
Clouds
Dew Point 45 °F
Humidity 22%
Rainfall 0.00 in
Snow Depth Not available.
UV Not available.
Pollen Not available.
Air Quality Not available.
Flu Activity Not available.
METAR OKBK 241200Z 18003KT CAVOK 31/07 Q1013 NOSIG

More Conditions Fewer Conditions

10-Day Weather Forecast

Almanac

Astronomy

Oct. 24, 2014 Rise Set
Actual Time 5:54 AM AST 5:09 PM AST
Civil Twilight 5:30 AM AST 5:33 PM AST
Nautical Twilight 5:02 AM AST 6:01 PM AST
Astronomical Twilight 4:35 AM AST 6:28 PM AST
Moon 6:10 AM AST 5:36 PM AST
Length of Visible Light 12h 02m
Length of Day
11h 14m
Tomorrow will be 1m 37s shorter.
New Moon, 0% of the Moon is Illuminated
Today
New Moon
Oct 30
First Quarter
Nov 6
Full
Nov 14
Last Quarter
Nov 22
New

Yesterday's Extremes

Country Highs Country Lows

Community

WunderPhotos

Upload Photos

1,764,544 photos uploaded!

Nearby

Snow Depth

Not available.

Earthquake Activity

City Distance Mag. Time & Date
No recent earthquake activity has been reported nearby.
Minimum magnitude displayed is 2.5.

Coastal Water Temperatures

Place Temperature
No Stations Reporting

Nearby Weather Stations